Decoded Metar for KIPJ (LINCOLNTON in NC, USA) (IATA:IPJ) | Meteo·Mobile Aviation Weather
aviador You're here:

KIPJ Decoded Metar

LINCOLNTON in NC, USA
Report Time2019-07-16 10:30:00
UTC Time2019-07-16 10:18:14
Flight Rules vfr VFR
WindCalm
Visibility9999 m
Phenomena:N/A
Clouds:N/A
CeilingNone
Temp21°C (ISA +8)
Dew Point21°C (100% RH)
QNH1020 hPa
Density Alt1,877 ft
Elevation876 ft
Report Wrong Elevation
Raw Report
KIPJ 161030Z AUTO 00000KT 10SM CLR 21/21 A3013 RMK AO2
T02120212=

Extra information for KIPJ:More info

Metar Taf Metar & Taf Last 4 Metars F.Rules Stats Wind Profile Meteogram Temp Stats Airport Information Weather charts Add Link Nearby VenuesMetar ALERT Operation Metar Decoded Social comments

AIRNAV info for KIPJ